YMA7468 ENKR-ENEV
Flight info
| Callsign | YMA7468 |
|---|---|
| Flight time | 1h 4m |
| Altitude | 32000 |
| Route | VADLA DCT ELDUR |
| Aircraft | A20N/M-SDE2E3FGHIRWXY/LB1 |
Departure
| Time | 2026-04-17 04:21 |
|---|---|
| Airport | Kirkenes Airport, Høybuktmoen (ENKR) |
Arrival
| Time | 2026-04-17 05:26 |
|---|---|
| Airport | Harstad/Narvik Airport (ENEV) |
| Time | Latitude | Longitude | Altitude | Speed | Heading |
|---|---|---|---|---|---|
| 2026-04-17 04:16 | 69.72269 | 29.89418 | 302 ft | 0 kts | 340° |
| 2026-04-17 04:17 | 69.72270 | 29.89417 | 302 ft | 0 kts | 340° |
| 2026-04-17 04:17 | 69.72282 | 29.89421 | 302 ft | 3 kts | 30° |
| 2026-04-17 04:17 | 69.72308 | 29.89492 | 302 ft | 7 kts | 51° |
| 2026-04-17 04:18 | 69.72349 | 29.89596 | 303 ft | 8 kts | 20° |
| 2026-04-17 04:18 | 69.72425 | 29.89578 | 301 ft | 13 kts | 345° |
| 2026-04-17 04:18 | 69.72535 | 29.89469 | 295 ft | 19 kts | 341° |
| 2026-04-17 04:18 | 69.72546 | 29.89189 | 289 ft | 19 kts | 256° |
| 2026-04-17 04:19 | 69.72499 | 29.88757 | 283 ft | 23 kts | 243° |
| 2026-04-17 04:19 | 69.72465 | 29.88559 | 284 ft | 24 kts | 245° |
| 2026-04-17 04:19 | 69.72452 | 29.88467 | 283 ft | 24 kts | 247° |
| 2026-04-17 04:19 | 69.72399 | 29.88059 | 287 ft | 23 kts | 252° |
| 2026-04-17 04:20 | 69.72353 | 29.87582 | 290 ft | 23 kts | 255° |
| 2026-04-17 04:20 | 69.72276 | 29.87170 | 292 ft | 23 kts | 238° |
| 2026-04-17 04:20 | 69.72316 | 29.87101 | 289 ft | 20 kts | 92° |
| 2026-04-17 04:20 | 69.72319 | 29.87309 | 289 ft | 0 kts | 73° |
| 2026-04-17 04:21 | 69.72394 | 29.87878 | 289 ft | 70 kts | 68° |
| 2026-04-17 04:21 | 69.72671 | 29.89850 | 288 ft | 137 kts | 72° |
| 2026-04-17 04:21 | 69.73021 | 29.92698 | 805 ft | 148 kts | 70° |
| 2026-04-17 04:21 | 69.73172 | 29.95224 | 1798 ft | 125 kts | 79° |
| 2026-04-17 04:22 | 69.73103 | 29.97639 | 2424 ft | 125 kts | 95° |
| 2026-04-17 04:22 | 69.72795 | 30.00020 | 2952 ft | 130 kts | 109° |
| 2026-04-17 04:22 | 69.72276 | 30.02195 | 3454 ft | 137 kts | 126° |
| 2026-04-17 04:22 | 69.71570 | 30.04138 | 3845 ft | 150 kts | 115° |
| 2026-04-17 04:23 | 69.71341 | 30.07176 | 3947 ft | 168 kts | 62° |
| 2026-04-17 04:23 | 69.72089 | 30.09580 | 4584 ft | 167 kts | 19° |
| 2026-04-17 04:23 | 69.73252 | 30.09722 | 5200 ft | 183 kts | 340° |
| 2026-04-17 04:23 | 69.74332 | 30.07557 | 5805 ft | 200 kts | 316° |
| 2026-04-17 04:24 | 69.75023 | 30.04126 | 6486 ft | 215 kts | 300° |
| 2026-04-17 04:24 | 69.75710 | 30.00518 | 7192 ft | 220 kts | 310° |
| 2026-04-17 04:24 | 69.76676 | 29.97035 | 7956 ft | 220 kts | 318° |
| 2026-04-17 04:24 | 69.77756 | 29.93947 | 8709 ft | 220 kts | 322° |
| 2026-04-17 04:25 | 69.78894 | 29.91029 | 9463 ft | 222 kts | 324° |
| 2026-04-17 04:25 | 69.80026 | 29.88203 | 10201 ft | 225 kts | 319° |
| 2026-04-17 04:25 | 69.80793 | 29.84440 | 10937 ft | 239 kts | 289° |
| 2026-04-17 04:25 | 69.80782 | 29.79501 | 11795 ft | 251 kts | 268° |
| 2026-04-17 04:26 | 69.80486 | 29.74506 | 12659 ft | 250 kts | 268° |
| 2026-04-17 04:26 | 69.80200 | 29.69615 | 13499 ft | 249 kts | 269° |
| 2026-04-17 04:26 | 69.79926 | 29.64765 | 14334 ft | 247 kts | 270° |
| 2026-04-17 04:26 | 69.79658 | 29.59936 | 15146 ft | 245 kts | 271° |
| 2026-04-17 04:27 | 69.79396 | 29.55100 | 15842 ft | 246 kts | 271° |
| 2026-04-17 04:27 | 69.79134 | 29.50219 | 16506 ft | 249 kts | 272° |
| 2026-04-17 04:27 | 69.78865 | 29.45239 | 17174 ft | 252 kts | 272° |
| 2026-04-17 04:27 | 69.78594 | 29.40253 | 17826 ft | 255 kts | 272° |
| 2026-04-17 04:28 | 69.78320 | 29.35217 | 18466 ft | 258 kts | 273° |
| 2026-04-17 04:28 | 69.78037 | 29.30077 | 19110 ft | 260 kts | 272° |
| 2026-04-17 04:28 | 69.77753 | 29.24901 | 19729 ft | 263 kts | 272° |
| 2026-04-17 04:28 | 69.77464 | 29.19722 | 20335 ft | 265 kts | 273° |
| 2026-04-17 04:29 | 69.77168 | 29.14463 | 20926 ft | 268 kts | 273° |
| 2026-04-17 04:29 | 69.76869 | 29.09140 | 21512 ft | 270 kts | 274° |
| 2026-04-17 04:29 | 69.76567 | 29.03804 | 22065 ft | 273 kts | 274° |
| 2026-04-17 04:29 | 69.76256 | 28.98357 | 22609 ft | 276 kts | 274° |
| 2026-04-17 04:30 | 69.75942 | 28.92843 | 23112 ft | 280 kts | 274° |
| 2026-04-17 04:30 | 69.75622 | 28.87291 | 23605 ft | 284 kts | 274° |
| 2026-04-17 04:30 | 69.75298 | 28.81700 | 24133 ft | 285 kts | 275° |
| 2026-04-17 04:30 | 69.75049 | 28.76056 | 24605 ft | 284 kts | 278° |
| 2026-04-17 04:31 | 69.74856 | 28.70413 | 25073 ft | 287 kts | 279° |
| 2026-04-17 04:31 | 69.74665 | 28.64682 | 25532 ft | 290 kts | 279° |
| 2026-04-17 04:31 | 69.74470 | 28.58907 | 26015 ft | 292 kts | 279° |
| 2026-04-17 04:31 | 69.74271 | 28.53083 | 26439 ft | 296 kts | 279° |
| 2026-04-17 04:32 | 69.74067 | 28.47182 | 26877 ft | 299 kts | 279° |
| 2026-04-17 04:32 | 69.73855 | 28.41176 | 27320 ft | 302 kts | 279° |
| 2026-04-17 04:32 | 69.73643 | 28.35236 | 27746 ft | 305 kts | 279° |
| 2026-04-17 04:32 | 69.73422 | 28.29091 | 28142 ft | 309 kts | 278° |
| 2026-04-17 04:33 | 69.73196 | 28.22919 | 28563 ft | 311 kts | 278° |
| 2026-04-17 04:33 | 69.72966 | 28.16710 | 28969 ft | 314 kts | 278° |
| 2026-04-17 04:33 | 69.72732 | 28.10455 | 29375 ft | 317 kts | 279° |
| 2026-04-17 04:33 | 69.72493 | 28.04237 | 29999 ft | 311 kts | 279° |
| 2026-04-17 04:34 | 69.72015 | 27.91784 | 30770 ft | 316 kts | 279° |
| 2026-04-17 04:34 | 69.71780 | 27.85570 | 31116 ft | 319 kts | 279° |
| 2026-04-17 04:34 | 69.71536 | 27.79234 | 31430 ft | 322 kts | 278° |
| 2026-04-17 04:35 | 69.71284 | 27.72773 | 31735 ft | 325 kts | 278° |
| 2026-04-17 04:35 | 69.71032 | 27.66380 | 32032 ft | 327 kts | 277° |
| 2026-04-17 04:35 | 69.70770 | 27.59787 | 32246 ft | 333 kts | 277° |
| 2026-04-17 04:35 | 69.70505 | 27.53067 | 32272 ft | 346 kts | 277° |
| 2026-04-17 04:36 | 69.70226 | 27.46109 | 32287 ft | 359 kts | 276° |
| 2026-04-17 04:36 | 69.69931 | 27.38875 | 32291 ft | 371 kts | 276° |
| 2026-04-17 04:36 | 69.69619 | 27.31348 | 32287 ft | 384 kts | 274° |
| 2026-04-17 04:36 | 69.69294 | 27.23660 | 32298 ft | 396 kts | 274° |
| 2026-04-17 04:37 | 69.68952 | 27.15705 | 32299 ft | 408 kts | 274° |
| 2026-04-17 04:37 | 69.68597 | 27.07505 | 32304 ft | 417 kts | 273° |
| 2026-04-17 04:37 | 69.67850 | 26.90825 | 32311 ft | 421 kts | 273° |
| 2026-04-17 04:38 | 69.67091 | 26.74231 | 32295 ft | 420 kts | 273° |
| 2026-04-17 04:38 | 69.66327 | 26.57670 | 32286 ft | 420 kts | 273° |
| 2026-04-17 04:39 | 69.65546 | 26.41071 | 32285 ft | 420 kts | 273° |
| 2026-04-17 04:39 | 69.64749 | 26.24420 | 32292 ft | 420 kts | 272° |
| 2026-04-17 04:40 | 69.63940 | 26.07843 | 32298 ft | 421 kts | 272° |
| 2026-04-17 04:40 | 69.63116 | 25.91283 | 32297 ft | 421 kts | 272° |
| 2026-04-17 04:41 | 69.62269 | 25.74634 | 32297 ft | 421 kts | 272° |
| 2026-04-17 04:41 | 69.61420 | 25.58290 | 32297 ft | 420 kts | 272° |
| 2026-04-17 04:42 | 69.60541 | 25.41601 | 32300 ft | 420 kts | 271° |
| 2026-04-17 04:42 | 69.59653 | 25.25058 | 32300 ft | 421 kts | 270° |
| 2026-04-17 04:43 | 69.58744 | 25.08505 | 32302 ft | 421 kts | 270° |
| 2026-04-17 04:43 | 69.57825 | 24.92001 | 32296 ft | 421 kts | 270° |
| 2026-04-17 04:44 | 69.56888 | 24.75493 | 32285 ft | 421 kts | 270° |
| 2026-04-17 04:44 | 69.55935 | 24.58988 | 32277 ft | 420 kts | 270° |
| 2026-04-17 04:45 | 69.54973 | 24.42609 | 32276 ft | 420 kts | 270° |
| 2026-04-17 04:45 | 69.53988 | 24.26085 | 32286 ft | 422 kts | 269° |
| 2026-04-17 04:46 | 69.52993 | 24.09688 | 32292 ft | 422 kts | 269° |
| 2026-04-17 04:46 | 69.51973 | 23.93162 | 32291 ft | 422 kts | 269° |
| 2026-04-17 04:47 | 69.50939 | 23.76703 | 32292 ft | 422 kts | 268° |
| 2026-04-17 04:47 | 69.49892 | 23.60259 | 32293 ft | 422 kts | 268° |
| 2026-04-17 04:48 | 69.48833 | 23.43890 | 32286 ft | 422 kts | 268° |
| 2026-04-17 04:48 | 69.47758 | 23.27545 | 32274 ft | 423 kts | 267° |
| 2026-04-17 04:49 | 69.46658 | 23.11040 | 32264 ft | 423 kts | 267° |
| 2026-04-17 04:49 | 69.45550 | 22.94692 | 32265 ft | 424 kts | 267° |
| 2026-04-17 04:50 | 69.44416 | 22.78199 | 32266 ft | 424 kts | 266° |
| 2026-04-17 04:50 | 69.43272 | 22.61805 | 32267 ft | 424 kts | 266° |
| 2026-04-17 04:51 | 69.42107 | 22.45357 | 32258 ft | 424 kts | 266° |
| 2026-04-17 04:51 | 69.40940 | 22.29098 | 32253 ft | 425 kts | 265° |
| 2026-04-17 04:52 | 69.39738 | 22.12587 | 32248 ft | 426 kts | 265° |
| 2026-04-17 04:52 | 69.38525 | 21.96168 | 32251 ft | 427 kts | 265° |
| 2026-04-17 04:53 | 69.37296 | 21.79752 | 32240 ft | 427 kts | 264° |
| 2026-04-17 04:55 | 69.32225 | 21.14295 | 32227 ft | 427 kts | 263° |
| 2026-04-17 04:55 | 69.30913 | 20.97905 | 32202 ft | 428 kts | 263° |
| 2026-04-17 04:56 | 69.29584 | 20.81539 | 32195 ft | 428 kts | 263° |
| 2026-04-17 04:56 | 69.28251 | 20.65295 | 32205 ft | 428 kts | 263° |
| 2026-04-17 04:57 | 69.26887 | 20.48929 | 32223 ft | 427 kts | 263° |
| 2026-04-17 04:57 | 69.25523 | 20.32723 | 32216 ft | 427 kts | 262° |
| 2026-04-17 04:58 | 69.24139 | 20.16487 | 32201 ft | 428 kts | 261° |
| 2026-04-17 04:58 | 69.22739 | 20.00265 | 32257 ft | 428 kts | 261° |
| 2026-04-17 04:59 | 69.21320 | 19.84027 | 32278 ft | 428 kts | 261° |
| 2026-04-17 04:59 | 69.19881 | 19.67764 | 32247 ft | 429 kts | 261° |
| 2026-04-17 05:00 | 69.18427 | 19.51523 | 32252 ft | 429 kts | 261° |
| 2026-04-17 05:00 | 69.16959 | 19.35305 | 32273 ft | 428 kts | 261° |
| 2026-04-17 05:01 | 69.15487 | 19.19226 | 32301 ft | 428 kts | 259° |
| 2026-04-17 05:01 | 69.13989 | 19.03075 | 31524 ft | 432 kts | 259° |
| 2026-04-17 05:02 | 69.13232 | 18.94953 | 30313 ft | 445 kts | 259° |
| 2026-04-17 05:02 | 69.12443 | 18.86494 | 28870 ft | 460 kts | 259° |
| 2026-04-17 05:02 | 69.11623 | 18.77799 | 27350 ft | 474 kts | 258° |
| 2026-04-17 05:02 | 69.10767 | 18.68798 | 26031 ft | 479 kts | 258° |
| 2026-04-17 05:03 | 69.09913 | 18.59885 | 24934 ft | 480 kts | 258° |
| 2026-04-17 05:03 | 69.09048 | 18.50948 | 23970 ft | 478 kts | 258° |
| 2026-04-17 05:03 | 69.08182 | 18.42060 | 23318 ft | 469 kts | 258° |
| 2026-04-17 05:03 | 69.07334 | 18.33413 | 22606 ft | 463 kts | 257° |
| 2026-04-17 05:04 | 69.06508 | 18.25011 | 21825 ft | 458 kts | 257° |
| 2026-04-17 05:04 | 69.05664 | 18.16467 | 21043 ft | 454 kts | 257° |
| 2026-04-17 05:04 | 69.04814 | 18.07904 | 20262 ft | 449 kts | 257° |
| 2026-04-17 05:04 | 69.03980 | 17.99556 | 19516 ft | 444 kts | 256° |
| 2026-04-17 05:05 | 69.03154 | 17.91328 | 18713 ft | 440 kts | 256° |
| 2026-04-17 05:05 | 69.02339 | 17.83256 | 17970 ft | 436 kts | 256° |
| 2026-04-17 05:05 | 69.01515 | 17.75153 | 17214 ft | 431 kts | 256° |
| 2026-04-17 05:05 | 69.00709 | 17.67252 | 16537 ft | 426 kts | 256° |
| 2026-04-17 05:06 | 68.99918 | 17.59547 | 15851 ft | 422 kts | 256° |
| 2026-04-17 05:06 | 68.99099 | 17.51615 | 15135 ft | 418 kts | 257° |
| 2026-04-17 05:06 | 68.98316 | 17.44070 | 14448 ft | 413 kts | 257° |
| 2026-04-17 05:06 | 68.97514 | 17.36383 | 13763 ft | 409 kts | 257° |
| 2026-04-17 05:07 | 68.96725 | 17.28840 | 13070 ft | 404 kts | 255° |
| 2026-04-17 05:07 | 68.95773 | 17.21568 | 12338 ft | 403 kts | 245° |
| 2026-04-17 05:07 | 68.94410 | 17.15022 | 11682 ft | 400 kts | 239° |
| 2026-04-17 05:07 | 68.92911 | 17.08524 | 11048 ft | 394 kts | 238° |
| 2026-04-17 05:08 | 68.91482 | 17.02430 | 10737 ft | 380 kts | 238° |
| 2026-04-17 05:08 | 68.90081 | 16.96446 | 10736 ft | 359 kts | 238° |
| 2026-04-17 05:08 | 68.88751 | 16.90745 | 10739 ft | 339 kts | 238° |
| 2026-04-17 05:08 | 68.87510 | 16.85401 | 10741 ft | 321 kts | 238° |
| 2026-04-17 05:09 | 68.86350 | 16.80409 | 10521 ft | 313 kts | 238° |
| 2026-04-17 05:09 | 68.85161 | 16.75288 | 9712 ft | 323 kts | 238° |
| 2026-04-17 05:09 | 68.84016 | 16.70365 | 8877 ft | 333 kts | 238° |
| 2026-04-17 05:09 | 68.82620 | 16.64999 | 8367 ft | 329 kts | 225° |
| 2026-04-17 05:10 | 68.80721 | 16.61807 | 8101 ft | 318 kts | 196° |
| 2026-04-17 05:10 | 68.78593 | 16.61601 | 7908 ft | 305 kts | 167° |
| 2026-04-17 05:10 | 68.76604 | 16.63074 | 7719 ft | 294 kts | 165° |
| 2026-04-17 05:10 | 68.74638 | 16.64204 | 7522 ft | 284 kts | 171° |
| 2026-04-17 05:11 | 68.72731 | 16.64860 | 7331 ft | 275 kts | 174° |
| 2026-04-17 05:11 | 68.70847 | 16.65248 | 7082 ft | 269 kts | 176° |
| 2026-04-17 05:11 | 68.68996 | 16.65514 | 6906 ft | 260 kts | 177° |
| 2026-04-17 05:11 | 68.67212 | 16.65732 | 6698 ft | 253 kts | 177° |
| 2026-04-17 05:12 | 68.65469 | 16.65936 | 6379 ft | 251 kts | 177° |
| 2026-04-17 05:12 | 68.63727 | 16.66138 | 6054 ft | 249 kts | 177° |
| 2026-04-17 05:12 | 68.62069 | 16.66329 | 5925 ft | 230 kts | 177° |
| 2026-04-17 05:12 | 68.60590 | 16.66495 | 5740 ft | 203 kts | 177° |
| 2026-04-17 05:13 | 68.59257 | 16.66644 | 5160 ft | 201 kts | 177° |
| 2026-04-17 05:13 | 68.57851 | 16.66758 | 3914 ft | 222 kts | 178° |
| 2026-04-17 05:13 | 68.56340 | 16.66822 | 3519 ft | 212 kts | 176° |
| 2026-04-17 05:13 | 68.54808 | 16.66902 | 2536 ft | 222 kts | 179° |
| 2026-04-17 05:14 | 68.53362 | 16.67140 | 2381 ft | 191 kts | 174° |
| 2026-04-17 05:14 | 68.52093 | 16.67460 | 1913 ft | 193 kts | 173° |
| 2026-04-17 05:14 | 68.50788 | 16.67667 | 1171 ft | 206 kts | 178° |
| 2026-04-17 05:14 | 68.49446 | 16.67701 | 599 ft | 205 kts | 175° |
| 2026-04-17 05:15 | 68.46704 | 16.68174 | 1283 ft | 172 kts | 176° |
| 2026-04-17 05:15 | 68.45571 | 16.68840 | 2146 ft | 170 kts | 152° |
| 2026-04-17 05:15 | 68.44558 | 16.70428 | 2851 ft | 171 kts | 142° |
| 2026-04-17 05:16 | 68.43726 | 16.72802 | 3081 ft | 182 kts | 123° |
| 2026-04-17 05:16 | 68.42985 | 16.75687 | 3137 ft | 184 kts | 127° |
| 2026-04-17 05:16 | 68.42301 | 16.78482 | 3365 ft | 174 kts | 111° |
| 2026-04-17 05:16 | 68.41995 | 16.81508 | 3601 ft | 169 kts | 99° |
| 2026-04-17 05:17 | 68.41805 | 16.84822 | 3521 ft | 182 kts | 99° |
| 2026-04-17 05:17 | 68.41637 | 16.88285 | 3677 ft | 179 kts | 86° |
| 2026-04-17 05:17 | 68.41794 | 16.91287 | 4069 ft | 164 kts | 81° |
| 2026-04-17 05:17 | 68.42155 | 16.94104 | 4399 ft | 142 kts | 44° |
| 2026-04-17 05:18 | 68.42855 | 16.95780 | 4416 ft | 147 kts | 39° |
| 2026-04-17 05:18 | 68.43703 | 16.97765 | 4037 ft | 172 kts | 44° |
| 2026-04-17 05:18 | 68.44527 | 17.00226 | 3859 ft | 183 kts | 50° |
| 2026-04-17 05:18 | 68.45297 | 17.02682 | 4231 ft | 161 kts | 41° |
| 2026-04-17 05:19 | 68.46126 | 17.04153 | 4661 ft | 131 kts | 28° |
| 2026-04-17 05:19 | 68.46949 | 17.05577 | 4338 ft | 153 kts | 34° |
| 2026-04-17 05:19 | 68.47881 | 17.06562 | 4594 ft | 129 kts | 6° |
| 2026-04-17 05:19 | 68.48728 | 17.06842 | 4558 ft | 129 kts | 10° |
| 2026-04-17 05:20 | 68.49644 | 17.07455 | 4412 ft | 135 kts | 9° |
| 2026-04-17 05:20 | 68.50575 | 17.07636 | 4377 ft | 135 kts | 353° |
| 2026-04-17 05:20 | 68.51493 | 17.07248 | 4350 ft | 135 kts | 343° |
| 2026-04-17 05:20 | 68.52386 | 17.06426 | 4311 ft | 134 kts | 333° |
| 2026-04-17 05:21 | 68.53236 | 17.05379 | 4258 ft | 135 kts | 336° |
| 2026-04-17 05:21 | 68.54085 | 17.04325 | 4229 ft | 135 kts | 330° |
| 2026-04-17 05:21 | 68.54916 | 17.02998 | 4289 ft | 142 kts | 324° |
| 2026-04-17 05:21 | 68.55680 | 17.01322 | 4549 ft | 139 kts | 309° |
| 2026-04-17 05:22 | 68.56274 | 16.99191 | 4864 ft | 150 kts | 303° |
| 2026-04-17 05:22 | 68.56941 | 16.96589 | 5017 ft | 184 kts | 304° |
| 2026-04-17 05:22 | 68.57707 | 16.93570 | 5461 ft | 201 kts | 300° |
| 2026-04-17 05:22 | 68.58288 | 16.89990 | 5409 ft | 214 kts | 293° |
| 2026-04-17 05:23 | 68.58388 | 16.86160 | 5391 ft | 192 kts | 248° |
| 2026-04-17 05:23 | 68.57862 | 16.83377 | 5656 ft | 161 kts | 243° |
| 2026-04-17 05:23 | 68.57365 | 16.80486 | 5213 ft | 169 kts | 247° |
| 2026-04-17 05:23 | 68.57101 | 16.77241 | 4355 ft | 193 kts | 267° |
| 2026-04-17 05:24 | 68.56898 | 16.73564 | 3432 ft | 200 kts | 236° |
| 2026-04-17 05:24 | 68.55893 | 16.71176 | 2709 ft | 199 kts | 213° |
| 2026-04-17 05:24 | 68.54880 | 16.68839 | 2205 ft | 188 kts | 209° |
| 2026-04-17 05:24 | 68.53723 | 16.67949 | 1936 ft | 164 kts | 182° |
| 2026-04-17 05:25 | 68.52636 | 16.67652 | 1408 ft | 167 kts | 181° |
| 2026-04-17 05:25 | 68.51525 | 16.67536 | 1075 ft | 158 kts | 176° |
| 2026-04-17 05:25 | 68.50526 | 16.67618 | 592 ft | 159 kts | 172° |
| 2026-04-17 05:25 | 68.49391 | 16.67803 | 100 ft | 154 kts | 182° |
| 2026-04-17 05:26 | 68.48466 | 16.67869 | 80 ft | 112 kts | 171° |
| 2026-04-17 05:26 | 68.47805 | 16.67948 | 69 ft | 83 kts | 179° |
| 2026-04-17 05:26 | 68.47549 | 16.68091 | 64 ft | 0 kts | 205° |
| 2026-04-17 05:26 | 68.47522 | 16.67916 | 64 ft | 33 kts | 300° |
| 2026-04-17 05:27 | 68.47847 | 16.67974 | 69 ft | 36 kts | 30° |
| 2026-04-17 05:27 | 68.48016 | 16.68304 | 70 ft | 29 kts | 2° |
| 2026-04-17 05:27 | 68.48211 | 16.68287 | 70 ft | 27 kts | 355° |
| 2026-04-17 05:27 | 68.48386 | 16.68259 | 70 ft | 26 kts | 359° |
| 2026-04-17 05:28 | 68.48566 | 16.68233 | 70 ft | 25 kts | 358° |
| 2026-04-17 05:28 | 68.48741 | 16.68212 | 70 ft | 24 kts | 357° |
| 2026-04-17 05:28 | 68.48883 | 16.68299 | 71 ft | 15 kts | 81° |
| 2026-04-17 05:28 | 68.48891 | 16.68588 | 71 ft | 15 kts | 88° |
| 2026-04-17 05:29 | 68.48938 | 16.68709 | 71 ft | 6 kts | 358° |
| 2026-04-17 05:29 | 68.48976 | 16.68705 | 71 ft | 0 kts | 359° |
| 2026-04-17 05:29 | 68.48984 | 16.68704 | 71 ft | 0 kts | 355° |